Cape Lookout Natl Seashore, NC

11:11 PM EST on December 09, 2016 (GMT -0500)
| | Change Station

Elev -9999 ft 0.00 °N, 0.00 °E | Updated 0 second ago

Clear
Clear
72 °F
Feels Like 72 °F
N
4
Wind Variable Wind from South
Gusts mph

Today
High -- | Low -- °F
--% Chance of Precip.
Yesterday
High -- | Low -- °F
Precip. -- in
Pressure 30.45 in
Visibility 10.0 miles
Clouds Clear
Dew Point 64 °F
Humidity 77%
Rainfall --
Snow Depth Not available.
6:58 AM 4:52 PM
Waxing Gibbous, 80% visible
METAR KMRH 100358Z AUTO 34007KT 10SM CLR 02/M04 A3045 RMK AO2 SLP312 T00171044 TSNO
Pressure 30.45 in
Visibility 10.0 miles
Clouds Clear
Dew Point 64 °F
Humidity 77%
Rainfall --
Snow Depth Not available.
6:58 AM 4:52 PM
Waxing Gibbous, 80% visible
METAR KMRH 100358Z AUTO 34007KT 10SM CLR 02/M04 A3045 RMK AO2 SLP312 T00171044 TSNO

10-Day Weather Forecast

Almanac

Astronomy

Dec. 09, 2016 Rise Set
Actual Time
Civil Twilight
Nautical Twilight
Astronomical Twilight
Moon
Length of Visible Light
Length of Day
Tomorrow will be .
, % of the Moon is Illuminated

Today's Extremes

State Highs State Lows

Community

WunderPhotos

Upload Photos

1,956,529 photos uploaded!

WunderBlog® & News

Nearby

Air Quality

  Air Quality AQ Index Pollutant
Not available.

Snow Depth

Station Depth Elevation

Earthquake Activity

City Distance Mag. Time & Date
Minimum magnitude displayed is 2.5.

Coastal Water Temperatures

Place Temperature

Stations

Nearby Weather Stations

Station Location Temp. Windchill Dew Point Humidity Wind Precip. Elev Updated Type
                   

Watches & Warnings

There are currently no watches in effect.